Terminal Aerodrome Forecast
Issued by NWS

Home | Current Version | Previous Version | Text Only | Print | Product List | Glossary On
Versions: 1 2 3 4 5 6 7 8 9 10 11 12 13 14 15 16 17 18 19 20 21 22 23 24 25 26 27 28 29 30 31 32 33 34
659
FTUS42 KCAE 241349 AAA
TAFCUB
TAF AMD
KCUB 241349Z 2414/2512 04007KT P6SM OVC007
      TEMPO 2414/2416 5SM -RA
     FM241600 07008KT 6SM SHRA VCSH OVC008
      TEMPO 2417/2421 4SM SHRA
     FM250000 33007KT P6SM VCSH OVC007=

USA.gov is the U.S. government's official web portal to all federal, state and local government web resources and services.